Time;durP1;ratioP1;P1;durP2;ratioP2;P2;SDS_P1;SDS_P2;PMS_P1;PMS_P2;Temp;Humidity;BMP_temperature;BMP_pressure;BME280_temperature;BME280_humidity;BME280_pressure;Samples;Min_cycle;Max_cycle;Signal;HPM_P1;HPM_P2
2022/02/16 00:00:51;;;;;;;14.60;10.87;;;;;;;-0.09;100.00;96869.78;4953651;28;20236;-51
2022/02/16 00:03:20;;;;;;;11.63;10.43;;;;;;;-0.04;100.00;96866.78;4957407;28;20230;-52
2022/02/16 00:05:49;;;;;;;13.00;11.07;;;;;;;-0.17;100.00;96862.56;4912123;28;20214;-56
2022/02/16 00:08:16;;;;;;;11.40;10.30;;;;;;;-0.17;100.00;96861.75;4963771;28;20687;-49
2022/02/16 00:10:44;;;;;;;11.80;10.33;;;;;;;-0.20;100.00;96864.59;4962674;28;20294;-56
2022/02/16 00:13:12;;;;;;;11.17;9.33;;;;;;;-0.16;100.00;96864.22;4953162;28;20244;-53
2022/02/16 00:15:41;;;;;;;11.90;10.80;;;;;;;-0.21;100.00;96868.13;4948718;28;20234;-56
2022/02/16 00:18:09;;;;;;;11.00;9.87;;;;;;;-0.24;100.00;96865.78;4961790;28;20976;-51
2022/02/16 00:20:38;;;;;;;11.67;10.53;;;;;;;-0.11;100.00;96863.00;4939308;28;20268;-56
2022/02/16 00:23:07;;;;;;;11.13;10.10;;;;;;;-0.19;100.00;96854.06;4944338;28;20230;-50
2022/02/16 00:25:35;;;;;;;10.57;9.47;;;;;;;-0.20;100.00;96848.97;4949643;28;20210;-54
2022/02/16 00:28:03;;;;;;;11.23;9.93;;;;;;;-0.30;100.00;96843.69;4948291;28;20542;-53
2022/02/16 00:30:31;;;;;;;10.60;9.63;;;;;;;-0.30;100.00;96838.47;4949577;28;20220;-56
2022/02/16 00:33:00;;;;;;;10.80;9.80;;;;;;;-0.18;100.00;96837.47;4955495;28;20229;-53
2022/02/16 00:35:28;;;;;;;10.53;9.57;;;;;;;-0.24;100.00;96837.13;4953556;28;20218;-56
2022/02/16 00:37:57;;;;;;;12.20;9.77;;;;;;;-0.33;100.00;96843.94;4921676;28;20846;-56
2022/02/16 00:40:25;;;;;;;10.87;9.77;;;;;;;-0.34;100.00;96837.09;4968983;28;20219;-53
2022/02/16 00:42:53;;;;;;;12.17;10.77;;;;;;;-0.38;100.00;96841.69;4945052;28;20421;-55
2022/02/16 00:45:21;;;;;;;10.97;9.60;;;;;;;-0.38;100.00;96835.66;4949522;28;20213;-51
2022/02/16 00:47:49;;;;;;;11.23;10.07;;;;;;;-0.45;100.00;96822.31;4937063;28;20722;-53
2022/02/16 00:50:17;;;;;;;10.33;9.20;;;;;;;-0.45;100.00;96812.72;4947394;28;20220;-52
2022/02/16 00:52:45;;;;;;;10.07;9.07;;;;;;;-0.41;100.00;96815.91;4923539;28;20240;-52
2022/02/16 00:55:14;;;;;;;11.17;8.93;;;;;;;-0.41;100.00;96813.31;4959052;28;20238;-55
2022/02/16 00:57:42;;;;;;;11.17;10.07;;;;;;;-0.48;100.00;96812.97;4964545;28;20214;-59
2022/02/16 01:00:12;;;;;;;10.30;9.30;;;;;;;-0.38;100.00;96815.66;4950159;28;20500;-49
2022/02/16 01:02:40;;;;;;;11.20;10.00;;;;;;;-0.48;100.00;96815.56;4942104;28;20257;-52
2022/02/16 01:05:09;;;;;;;12.77;10.57;;;;;;;-0.49;100.00;96815.72;4951166;28;20206;-55
2022/02/16 01:07:37;;;;;;;12.10;9.73;;;;;;;-0.41;100.00;96804.66;4931888;28;20240;-54
2022/02/16 01:10:06;;;;;;;12.47;9.30;;;;;;;-0.37;100.00;96806.09;4967147;28;20208;-58
2022/02/16 01:12:37;;;;;;;10.30;9.03;;;;;;;-0.44;100.00;96805.75;4963220;28;20695;-49
2022/02/16 01:15:06;;;;;;;10.17;9.20;;;;;;;-0.47;100.00;96796.41;4949227;28;20230;-58
2022/02/16 01:17:34;;;;;;;9.90;8.90;;;;;;;-0.39;100.00;96795.78;4950819;28;20702;-53
2022/02/16 01:20:02;;;;;;;10.37;9.27;;;;;;;-0.37;100.00;96796.50;4961780;28;20214;-56
2022/02/16 01:22:30;;;;;;;9.97;8.57;;;;;;;-0.28;100.00;96799.28;4923534;28;20238;-52
2022/02/16 01:24:59;;;;;;;9.57;8.50;;;;;;;-0.34;100.00;96790.22;4960936;28;20688;-56
2022/02/16 01:27:27;;;;;;;17.00;9.57;;;;;;;-0.32;100.00;96785.72;4964040;28;20209;-55
2022/02/16 01:29:56;;;;;;;10.53;7.80;;;;;;;-0.31;100.00;96784.75;4963396;28;20209;-53
2022/02/16 01:32:25;;;;;;;8.70;7.80;;;;;;;-0.43;100.00;96770.97;4938151;28;20234;-53
2022/02/16 01:34:53;;;;;;;9.67;8.73;;;;;;;-0.39;100.00;96776.72;4949006;28;20222;-57
2022/02/16 01:37:21;;;;;;;10.77;8.60;;;;;;;-0.32;100.00;96772.69;4949618;28;20900;-54
2022/02/16 01:39:49;;;;;;;8.53;7.70;;;;;;;-0.33;100.00;96771.84;4921712;28;20222;-52
2022/02/16 01:42:18;;;;;;;8.87;7.93;;;;;;;-0.40;100.00;96767.25;4959019;28;20316;-55
2022/02/16 01:44:46;;;;;;;10.27;9.20;;;;;;;-0.37;100.00;96765.25;4966551;28;20438;-47
2022/02/16 01:47:17;;;;;;;7.43;6.73;;;;;;;-0.43;100.00;96760.56;4948581;28;20209;-56
2022/02/16 01:49:45;;;;;;;9.33;8.03;;;;;;;-0.42;100.00;96757.00;4949299;28;20687;-54
2022/02/16 01:52:13;;;;;;;9.27;8.37;;;;;;;-0.41;100.00;96757.81;4947501;28;20238;-53
2022/02/16 01:54:41;;;;;;;9.10;8.30;;;;;;;-0.44;100.00;96751.09;4925288;28;20239;-51
2022/02/16 01:57:09;;;;;;;9.77;8.63;;;;;;;-0.40;100.00;96742.06;4960481;28;20596;-52
2022/02/16 01:59:37;;;;;;;8.23;7.50;;;;;;;-0.50;100.00;96743.78;4964177;28;20216;-55
2022/02/16 02:02:07;;;;;;;7.67;7.07;;;;;;;-0.40;100.00;96749.88;4946708;28;20213;-57
2022/02/16 02:04:36;;;;;;;7.80;6.63;;;;;;;-0.41;100.00;96742.19;4951197;28;20572;-53
2022/02/16 02:07:04;;;;;;;6.90;6.30;;;;;;;-0.33;100.00;96742.41;4961750;28;20216;-55
2022/02/16 02:09:32;;;;;;;7.50;6.70;;;;;;;-0.29;100.00;96738.59;4913797;28;20216;-55
2022/02/16 02:12:01;;;;;;;7.77;6.97;;;;;;;-0.22;100.00;96741.50;4960537;28;20217;-53
2022/02/16 02:14:29;;;;;;;8.03;7.23;;;;;;;-0.23;100.00;96740.69;4960392;28;20234;-53
2022/02/16 02:16:57;;;;;;;7.37;6.73;;;;;;;-0.28;100.00;96727.22;4955544;28;20894;-54
2022/02/16 02:19:25;;;;;;;9.20;7.60;;;;;;;-0.21;100.00;96740.53;4952252;28;20418;-54
2022/02/16 02:21:54;;;;;;;7.83;7.07;;;;;;;-0.12;100.00;96739.81;4951528;28;20210;-55
2022/02/16 02:24:22;;;;;;;6.63;5.97;;;;;;;-0.12;100.00;96737.19;4948039;28;21056;-55
2022/02/16 02:26:50;;;;;;;7.97;6.67;;;;;;;-0.10;100.00;96727.47;4920031;28;20217;-52
2022/02/16 02:29:18;;;;;;;7.40;6.77;;;;;;;-0.14;100.00;96728.69;4961062;28;20216;-53
2022/02/16 02:31:47;;;;;;;7.40;6.70;;;;;;;-0.19;100.00;96715.19;4951967;28;20716;-49
2022/02/16 02:34:15;;;;;;;6.83;6.07;;;;;;;-0.08;100.00;96712.53;4950661;28;20259;-53
2022/02/16 02:36:43;;;;;;;6.37;5.87;;;;;;;-0.07;100.00;96702.94;4949991;28;20249;-53
2022/02/16 02:39:12;;;;;;;6.80;6.27;;;;;;;-0.17;100.00;96708.91;4962108;28;20201;-55
2022/02/16 02:41:40;;;;;;;6.03;5.50;;;;;;;-0.14;100.00;96702.66;4913683;28;20582;-56
2022/02/16 02:44:08;;;;;;;6.17;5.57;;;;;;;-0.07;100.00;96708.16;4943128;28;20416;-56
2022/02/16 02:46:37;;;;;;;5.73;5.23;;;;;;;-0.10;100.00;96695.38;4950002;28;20209;-52
2022/02/16 02:49:05;;;;;;;6.57;5.97;;;;;;;-0.04;100.00;96697.47;4952047;28;20595;-53
2022/02/16 02:51:33;;;;;;;6.23;5.63;;;;;;;-0.02;100.00;96680.78;4945170;28;20773;-51
2022/02/16 02:54:01;;;;;;;5.77;5.27;;;;;;;-0.05;100.00;96686.25;4963854;28;20603;-53
2022/02/16 02:56:30;;;;;;;5.70;5.17;;;;;;;-0.09;100.00;96681.41;4921078;28;20321;-54
2022/02/16 02:58:58;;;;;;;6.13;5.63;;;;;;;-0.21;100.00;96675.44;4960172;28;20719;-53
2022/02/16 03:01:27;;;;;;;5.40;5.00;;;;;;;-0.35;100.00;96672.22;4967773;28;20589;-53
2022/02/16 03:03:55;;;;;;;5.40;4.90;;;;;;;-0.17;100.00;96669.06;4958958;28;20456;-54
2022/02/16 03:06:23;;;;;;;5.47;4.97;;;;;;;-0.27;100.00;96668.16;4948066;28;20311;-54
2022/02/16 03:08:51;;;;;;;6.13;5.53;;;;;;;-0.22;100.00;96658.16;4944496;28;20214;-53
2022/02/16 03:11:19;;;;;;;5.33;4.83;;;;;;;-0.25;100.00;96661.03;4967612;28;20214;-52
2022/02/16 03:13:49;;;;;;;4.87;4.37;;;;;;;-0.26;100.00;96665.44;4916376;28;20252;-53
2022/02/16 03:16:17;;;;;;;5.90;5.40;;;;;;;-0.18;100.00;96659.59;4965848;28;20321;-54
2022/02/16 03:18:45;;;;;;;5.33;4.83;;;;;;;-0.21;100.00;96649.41;4964379;28;20212;-53
2022/02/16 03:21:13;;;;;;;5.80;4.77;;;;;;;-0.27;100.00;96655.13;4946474;28;20300;-56
2022/02/16 03:23:41;;;;;;;4.97;4.57;;;;;;;-0.15;100.00;96659.34;4945182;28;20721;-49
2022/02/16 03:26:10;;;;;;;5.37;4.87;;;;;;;-0.23;100.00;96656.53;4945758;28;20510;-55
2022/02/16 03:28:38;;;;;;;5.17;4.53;;;;;;;-0.21;100.00;96649.41;4920976;28;20215;-50
2022/02/16 03:31:07;;;;;;;4.90;4.50;;;;;;;-0.12;100.00;96648.66;4963321;28;20210;-51
2022/02/16 03:33:35;;;;;;;5.50;5.10;;;;;;;-0.14;100.00;96653.16;4967188;28;20245;-49
2022/02/16 03:36:04;;;;;;;5.17;4.70;;;;;;;-0.01;100.00;96651.16;4949032;28;21128;-54
2022/02/16 03:38:32;;;;;;;5.30;4.80;;;;;;;0.03;100.00;96648.28;4946884;28;20206;-54
2022/02/16 03:41:00;;;;;;;4.90;4.50;;;;;;;-0.01;100.00;96645.94;4963377;28;20331;-52
2022/02/16 03:43:28;;;;;;;5.13;4.73;;;;;;;0.04;100.00;96642.97;4922267;28;20229;-56
2022/02/16 03:45:56;;;;;;;4.67;4.27;;;;;;;0.07;100.00;96639.25;4965215;28;20376;-54
2022/02/16 03:48:25;;;;;;;6.50;5.17;;;;;;;0.20;100.00;96629.44;4965183;28;20215;-54
2022/02/16 03:50:53;;;;;;;8.17;4.27;;;;;;;0.08;100.00;96627.88;4955942;28;20956;-53
2022/02/16 03:53:24;;;;;;;4.80;4.27;;;;;;;0.10;100.00;96624.19;4928216;28;20250;-57
2022/02/16 03:55:52;;;;;;;4.63;4.33;;;;;;;0.20;100.00;96624.25;4962056;28;20232;-53
2022/02/16 03:58:20;;;;;;;4.73;4.33;;;;;;;0.18;100.00;96620.09;4967086;28;20298;-55
2022/02/16 04:00:48;;;;;;;4.77;4.37;;;;;;;0.18;100.00;96626.13;4917497;28;20951;-53
2022/02/16 04:03:16;;;;;;;4.90;4.50;;;;;;;0.24;100.00;96622.19;4965939;28;20230;-52
2022/02/16 04:05:45;;;;;;;4.63;4.23;;;;;;;0.21;100.00;96628.50;4940642;28;20221;-50
2022/02/16 04:08:13;;;;;;;5.00;4.60;;;;;;;0.20;100.00;96626.00;4949748;28;20248;-51
2022/02/16 04:10:41;;;;;;;5.07;4.67;;;;;;;0.23;100.00;96617.91;4941673;28;20317;-49
2022/02/16 04:13:09;;;;;;;5.13;4.13;;;;;;;0.22;100.00;96624.94;4966257;28;20233;-54
2022/02/16 04:15:37;;;;;;;3.77;3.57;;;;;;;0.29;100.00;96627.81;4892360;28;20392;-53
2022/02/16 04:18:06;;;;;;;5.07;4.20;;;;;;;0.20;100.00;96619.03;4963195;28;21566;-51
2022/02/16 04:20:33;;;;;;;4.50;4.10;;;;;;;0.32;100.00;96616.31;4944926;28;20428;-52
2022/02/16 04:23:04;;;;;;;4.80;4.30;;;;;;;0.25;100.00;96614.25;4964391;28;20234;-54
2022/02/16 04:25:32;;;;;;;4.80;4.40;;;;;;;0.20;100.00;96616.41;4926749;28;20206;-54
2022/02/16 04:28:02;;;;;;;4.03;3.73;;;;;;;0.26;100.00;96612.44;4964643;28;20227;-52
2022/02/16 04:30:30;;;;;;;3.67;3.37;;;;;;;0.20;100.00;96600.78;4916548;28;20293;-55
2022/02/16 04:32:58;;;;;;;4.23;3.80;;;;;;;0.21;100.00;96607.66;4960938;28;20345;-52
2022/02/16 04:35:26;;;;;;;3.80;3.37;;;;;;;0.27;100.00;96596.69;4961554;28;20435;-52
2022/02/16 04:37:54;;;;;;;4.07;3.77;;;;;;;0.27;100.00;96601.91;4963134;28;20216;-53
2022/02/16 04:40:24;;;;;;;3.77;3.43;;;;;;;0.29;100.00;96593.94;4925402;28;20222;-51
2022/02/16 04:42:54;;;;;;;3.07;2.87;;;;;;;0.23;100.00;96586.66;4966928;28;20228;-53
2022/02/16 04:45:22;;;;;;;3.87;3.57;;;;;;;0.28;100.00;96592.28;4937007;28;20220;-52
2022/02/16 04:47:50;;;;;;;3.97;3.00;;;;;;;0.30;100.00;96585.16;4952903;28;20210;-54
2022/02/16 04:50:19;;;;;;;3.70;3.40;;;;;;;0.26;100.00;96596.81;4963639;28;20213;-53
2022/02/16 04:52:49;;;;;;;3.63;3.33;;;;;;;0.23;100.00;96592.69;4957922;28;20256;-50
2022/02/16 04:55:17;;;;;;;3.50;3.30;;;;;;;0.36;100.00;96594.22;4947252;28;20872;-54
2022/02/16 04:57:47;;;;;;;3.77;3.47;;;;;;;0.35;100.00;96585.56;4963142;28;20508;-53
2022/02/16 05:00:15;;;;;;;3.57;3.27;;;;;;;0.21;100.00;96583.34;4940115;28;20210;-52
2022/02/16 05:02:43;;;;;;;3.40;3.13;;;;;;;0.35;100.00;96587.38;4920952;28;20320;-54
2022/02/16 05:05:11;;;;;;;3.63;3.40;;;;;;;0.37;100.00;96575.84;4947048;28;20792;-49
2022/02/16 05:07:39;;;;;;;3.60;3.30;;;;;;;0.35;100.00;96576.94;4964832;28;20208;-55
2022/02/16 05:10:09;;;;;;;3.47;3.27;;;;;;;0.45;100.00;96572.56;4963779;28;20217;-49
2022/02/16 05:12:38;;;;;;;3.67;3.37;;;;;;;0.35;100.00;96572.53;4944027;28;20241;-50
2022/02/16 05:15:09;;;;;;;3.20;3.00;;;;;;;0.30;100.00;96569.50;4962632;28;20454;-51
2022/02/16 05:17:37;;;;;;;5.63;3.43;;;;;;;0.34;100.00;96560.47;4914266;28;20729;-56
2022/02/16 05:20:06;;;;;;;3.47;3.27;;;;;;;0.38;100.00;96556.66;4961717;28;20209;-51
2022/02/16 05:22:35;;;;;;;3.77;3.23;;;;;;;0.33;100.00;96556.22;4943968;28;20260;-53
2022/02/16 05:25:04;;;;;;;5.60;3.27;;;;;;;0.36;100.00;96555.13;4962562;28;20206;-53
2022/02/16 05:27:32;;;;;;;3.70;3.40;;;;;;;0.33;100.00;96548.41;4941751;28;20206;-54
2022/02/16 05:30:00;;;;;;;3.10;2.90;;;;;;;0.35;100.00;96545.66;4966936;28;20646;-54
2022/02/16 05:32:29;;;;;;;3.10;2.90;;;;;;;0.28;100.00;96535.78;4926481;28;20218;-53
2022/02/16 05:34:57;;;;;;;3.00;2.87;;;;;;;0.15;100.00;96522.19;4968510;28;20225;-51
2022/02/16 05:37:26;;;;;;;3.50;3.30;;;;;;;0.34;100.00;96533.59;4943771;28;20230;-53
2022/02/16 05:39:54;;;;;;;3.30;3.10;;;;;;;0.21;100.00;96524.28;4964258;28;20782;-54
2022/02/16 05:42:22;;;;;;;3.30;3.10;;;;;;;0.21;100.00;96521.66;4944886;28;20234;-54
2022/02/16 05:44:50;;;;;;;3.60;3.30;;;;;;;0.32;100.00;96514.66;4963774;28;20701;-49
2022/02/16 05:47:18;;;;;;;3.47;3.27;;;;;;;0.26;100.00;96508.22;4932703;28;20669;-53
2022/02/16 05:49:47;;;;;;;3.50;3.30;;;;;;;0.25;100.00;96510.00;4961776;28;20574;-52
2022/02/16 05:52:15;;;;;;;3.90;3.10;;;;;;;0.28;100.00;96511.50;4948122;28;20822;-56
2022/02/16 05:54:43;;;;;;;3.67;3.37;;;;;;;0.28;100.00;96506.28;4960400;28;20202;-53
2022/02/16 05:57:12;;;;;;;3.83;3.53;;;;;;;0.21;100.00;96503.44;4944412;28;20222;-51
2022/02/16 05:59:40;;;;;;;3.10;2.90;;;;;;;0.30;100.00;96503.56;4963202;28;20290;-55
2022/02/16 06:02:08;;;;;;;4.03;2.63;;;;;;;0.29;100.00;96500.13;4957355;28;20288;-55
2022/02/16 06:04:37;;;;;;;3.53;3.33;;;;;;;0.38;100.00;96503.69;4905266;28;20217;-51
2022/02/16 06:07:06;;;;;;;3.47;3.17;;;;;;;0.34;100.00;96503.13;4943669;28;20510;-52
2022/02/16 06:09:34;;;;;;;3.40;3.07;;;;;;;0.31;100.00;96500.81;4948181;28;20240;-51
2022/02/16 06:12:04;;;;;;;3.23;3.03;;;;;;;0.34;100.00;96497.13;4949011;28;20713;-55
2022/02/16 06:14:32;;;;;;;3.27;3.07;;;;;;;0.34;100.00;96495.31;4963941;28;20235;-51
2022/02/16 06:17:00;;;;;;;3.17;2.93;;;;;;;0.26;100.00;96490.81;4936859;28;20226;-54
2022/02/16 06:19:28;;;;;;;3.00;2.80;;;;;;;0.30;100.00;96495.75;4927825;28;20210;-54
2022/02/16 06:21:56;;;;;;;5.33;3.47;;;;;;;0.35;100.00;96481.31;4945354;28;21386;-52
2022/02/16 06:24:25;;;;;;;5.43;3.63;;;;;;;0.31;100.00;96489.56;4937055;28;20346;-54
2022/02/16 06:26:53;;;;;;;3.27;2.97;;;;;;;0.38;100.00;96483.69;4965197;28;20671;-53
2022/02/16 06:29:21;;;;;;;4.00;3.53;;;;;;;0.32;100.00;96483.41;4942127;28;20233;-50
2022/02/16 06:31:49;;;;;;;3.00;2.80;;;;;;;0.40;100.00;96480.94;4962029;28;20217;-55
2022/02/16 06:34:17;;;;;;;9.13;6.77;;;;;;;0.39;100.00;96480.13;4914792;28;20237;-51
2022/02/16 06:36:45;;;;;;;6.77;3.17;;;;;;;0.49;100.00;96481.88;4945721;28;20218;-52
2022/02/16 06:39:13;;;;;;;2.80;2.67;;;;;;;0.50;100.00;96479.13;4960236;28;20400;-53
2022/02/16 06:41:43;;;;;;;3.77;3.47;;;;;;;0.60;100.00;96478.31;4949222;28;20213;-53
2022/02/16 06:44:12;;;;;;;4.37;3.50;;;;;;;0.69;100.00;96467.84;4945463;28;20276;-49
2022/02/16 06:46:41;;;;;;;3.20;2.90;;;;;;;0.77;100.00;96464.56;4964811;28;20614;-51
2022/02/16 06:49:15;;;;;;;6.00;3.33;;;;;;;0.80;100.00;96469.50;4927337;28;20681;-51
2022/02/16 06:51:43;;;;;;;2.87;2.70;;;;;;;0.93;100.00;96457.94;4963316;28;20605;-55
2022/02/16 06:54:11;;;;;;;2.60;2.50;;;;;;;0.91;100.00;96455.47;4947249;28;20241;-52
2022/02/16 06:56:39;;;;;;;2.80;2.60;;;;;;;0.88;100.00;96450.53;4953306;28;20228;-50
2022/02/16 06:59:08;;;;;;;3.00;2.80;;;;;;;0.84;100.00;96443.97;4943741;28;20210;-53
2022/02/16 07:01:36;;;;;;;2.93;2.73;;;;;;;0.91;100.00;96446.81;4957890;28;20206;-52
2022/02/16 07:04:05;;;;;;;2.80;2.60;;;;;;;0.96;100.00;96444.63;4964654;28;20235;-53
2022/02/16 07:06:33;;;;;;;2.30;2.20;;;;;;;1.00;100.00;96448.59;4919770;28;20218;-54
2022/02/16 07:09:01;;;;;;;3.03;2.80;;;;;;;1.09;100.00;96446.91;4947255;28;20211;-49
2022/02/16 07:11:30;;;;;;;3.20;3.00;;;;;;;1.07;100.00;96447.06;4942644;28;20224;-52
2022/02/16 07:13:58;;;;;;;2.67;2.47;;;;;;;1.14;100.00;96440.28;4949489;28;21901;-53
2022/02/16 07:16:27;;;;;;;3.03;2.83;;;;;;;1.21;100.00;96431.88;4963647;28;20237;-55
2022/02/16 07:18:55;;;;;;;2.47;2.37;;;;;;;1.30;100.00;96425.81;4959721;28;20436;-51
2022/02/16 07:21:24;;;;;;;3.17;2.97;;;;;;;1.28;100.00;96422.50;4921801;28;20214;-52
2022/02/16 07:23:52;;;;;;;3.27;3.03;;;;;;;1.34;100.00;96424.56;4944966;28;20221;-59
2022/02/16 07:26:20;;;;;;;2.80;2.63;;;;;;;1.36;100.00;96409.59;4944704;28;20412;-53
2022/02/16 07:28:48;;;;;;;3.20;3.00;;;;;;;1.45;100.00;96405.25;4966908;28;20202;-54
2022/02/16 07:31:17;;;;;;;3.07;2.93;;;;;;;1.44;100.00;96393.19;4945124;28;20395;-53
2022/02/16 07:33:46;;;;;;;2.67;2.50;;;;;;;1.40;100.00;96381.38;4963750;28;20761;-54
2022/02/16 07:36:14;;;;;;;3.00;2.80;;;;;;;1.54;100.00;96387.91;4925519;28;20906;-55
2022/02/16 07:38:42;;;;;;;2.37;2.27;;;;;;;1.77;100.00;96383.09;4968426;28;20227;-52
2022/02/16 07:41:10;;;;;;;2.83;2.63;;;;;;;1.75;100.00;96369.34;4937595;28;20206;-51
2022/02/16 07:43:38;;;;;;;2.90;2.57;;;;;;;1.91;100.00;96368.69;4973983;28;20320;-53
2022/02/16 07:46:06;;;;;;;2.90;2.63;;;;;;;1.88;100.00;96359.34;4950800;28;20228;-52
2022/02/16 07:48:34;;;;;;;3.27;3.07;;;;;;;2.13;100.00;96374.44;4967584;28;20210;-51
2022/02/16 07:51:04;;;;;;;4.00;3.70;;;;;;;2.44;100.00;96377.44;4967399;28;20206;-56
2022/02/16 07:53:38;;;;;;;2.90;2.80;;;;;;;2.39;100.00;96371.00;4931941;28;20233;-53
2022/02/16 07:56:06;;;;;;;2.77;2.63;;;;;;;2.46;100.00;96354.56;4950903;28;20870;-54
2022/02/16 07:58:35;;;;;;;3.40;2.90;;;;;;;2.40;100.00;96364.81;4936138;28;20247;-52
2022/02/16 08:01:03;;;;;;;3.87;2.40;;;;;;;2.41;100.00;96350.78;4949849;28;20210;-53
2022/02/16 08:03:33;;;;;;;2.53;2.43;;;;;;;2.54;100.00;96348.59;4965961;28;20228;-55
2022/02/16 08:06:03;;;;;;;2.30;2.13;;;;;;;2.43;100.00;96356.66;4963664;28;20213;-54
2022/02/16 08:08:33;;;;;;;2.90;2.70;;;;;;;2.55;100.00;96357.25;4928543;28;20653;-56
2022/02/16 08:11:02;;;;;;;2.77;2.57;;;;;;;2.54;100.00;96345.13;4955645;28;20214;-54
2022/02/16 08:13:30;;;;;;;2.73;2.50;;;;;;;2.59;100.00;96343.72;4948785;28;20333;-53
2022/02/16 08:15:58;;;;;;;3.13;2.93;;;;;;;2.65;100.00;96344.06;4946260;28;20225;-53
2022/02/16 08:18:27;;;;;;;2.90;2.70;;;;;;;2.59;100.00;96332.41;4962222;28;20824;-51
2022/02/16 08:20:55;;;;;;;2.63;2.40;;;;;;;2.57;100.00;96337.81;4961155;28;20281;-51
2022/02/16 08:23:24;;;;;;;2.40;2.30;;;;;;;2.48;100.00;96332.69;4964724;28;20233;-56
2022/02/16 08:25:57;;;;;;;2.87;2.67;;;;;;;2.60;100.00;96334.88;4920129;28;20317;-52
2022/02/16 08:28:25;;;;;;;3.93;3.00;;;;;;;2.76;100.00;96341.19;4950241;28;20304;-54
2022/02/16 08:30:53;;;;;;;2.57;2.47;;;;;;;2.80;100.00;96334.66;4951272;28;20981;-55
2022/02/16 08:33:21;;;;;;;3.40;3.17;;;;;;;2.67;100.00;96327.25;4950066;28;20240;-54
2022/02/16 08:35:49;;;;;;;2.93;2.73;;;;;;;2.81;100.00;96336.28;4964793;28;20213;-53
2022/02/16 08:38:17;;;;;;;2.77;2.57;;;;;;;2.95;100.00;96329.66;4969175;28;20221;-53
2022/02/16 08:40:45;;;;;;;2.60;2.47;;;;;;;2.90;100.00;96321.47;4931493;28;20811;-51
2022/02/16 08:43:26;;;;;;;2.60;2.50;;;;;;;3.08;100.00;96334.47;4938448;28;20706;-53
2022/02/16 08:45:55;;;;;;;3.20;3.00;;;;;;;3.15;100.00;96319.75;4946877;28;20243;-50
2022/02/16 08:48:23;;;;;;;2.70;2.50;;;;;;;3.28;100.00;96324.53;4952074;28;20413;-53
2022/02/16 08:50:52;;;;;;;3.20;3.00;;;;;;;3.43;100.00;96323.94;4961180;28;20206;-57
2022/02/16 08:53:20;;;;;;;2.70;2.47;;;;;;;3.33;100.00;96313.59;4962733;28;20415;-56
2022/02/16 08:55:48;;;;;;;3.77;3.57;;;;;;;3.38;100.00;96303.47;4927666;28;20222;-53
2022/02/16 08:58:16;;;;;;;5.17;3.13;;;;;;;3.47;100.00;96297.25;4949772;28;20823;-54
2022/02/16 09:00:46;;;;;;;3.10;2.90;;;;;;;3.23;100.00;96289.38;4955060;28;20694;-52
2022/02/16 09:03:14;;;;;;;2.30;2.20;;;;;;;3.40;100.00;96296.25;4950004;28;20440;-52
2022/02/16 09:05:44;;;;;;;2.77;2.67;;;;;;;3.30;100.00;96296.41;4963188;28;20211;-51
2022/02/16 09:08:12;;;;;;;2.73;2.63;;;;;;;3.09;100.00;96285.56;4961251;28;20383;-54
2022/02/16 09:10:40;;;;;;;3.67;2.80;;;;;;;3.02;100.00;96287.97;4928891;28;20547;-51
2022/02/16 09:13:08;;;;;;;2.53;2.43;;;;;;;3.20;100.00;96287.88;4949932;28;20520;-56
2022/02/16 09:15:36;;;;;;;2.60;2.40;;;;;;;3.26;100.00;96299.53;4947201;28;20387;-54
2022/02/16 09:18:06;;;;;;;2.70;2.50;;;;;;;3.36;100.00;96297.56;4945515;28;20443;-51
2022/02/16 09:20:34;;;;;;;2.80;2.13;;;;;;;3.33;100.00;96295.28;4964105;28;20216;-56
2022/02/16 09:23:05;;;;;;;2.83;2.63;;;;;;;3.33;100.00;96287.41;4964463;28;20226;-52
2022/02/16 09:25:33;;;;;;;2.70;2.50;;;;;;;3.35;100.00;96280.22;4968978;28;20652;-52
2022/02/16 09:28:01;;;;;;;2.97;2.77;;;;;;;3.51;100.00;96278.59;4918382;28;20599;-50
2022/02/16 09:30:30;;;;;;;3.37;3.07;;;;;;;3.61;100.00;96271.44;4965513;28;20218;-55
2022/02/16 09:32:59;;;;;;;2.87;2.77;;;;;;;3.73;100.00;96283.22;4948052;28;20255;-53
2022/02/16 09:35:29;;;;;;;3.27;3.07;;;;;;;4.00;100.00;96272.56;4951034;28;20214;-54
2022/02/16 09:37:57;;;;;;;7.43;6.67;;;;;;;4.04;100.00;96252.91;4961510;28;20573;-51
2022/02/16 09:40:25;;;;;;;3.43;3.13;;;;;;;4.12;100.00;96252.06;4963367;28;20283;-56
2022/02/16 09:42:56;;;;;;;2.50;2.30;;;;;;;3.99;100.00;96237.69;4925385;28;20230;-54
2022/02/16 09:45:29;;;;;;;2.70;2.53;;;;;;;3.95;100.00;96233.72;4953101;28;20213;-52
2022/02/16 09:47:57;;;;;;;3.20;3.00;;;;;;;3.68;100.00;96232.28;4949146;28;20225;-52
2022/02/16 09:50:26;;;;;;;3.17;2.97;;;;;;;3.88;100.00;96235.38;4957385;28;20205;-56
2022/02/16 09:52:55;;;;;;;4.23;2.90;;;;;;;3.94;100.00;96234.72;4962201;28;20236;-54
2022/02/16 09:55:23;;;;;;;3.13;2.90;;;;;;;4.24;100.00;96218.47;4962289;28;21514;-52
2022/02/16 09:57:51;;;;;;;3.00;2.70;;;;;;;4.32;100.00;96206.13;4929367;28;20232;-57
2022/02/16 10:00:19;;;;;;;3.23;3.03;;;;;;;4.71;100.00;96212.41;4947922;28;20538;-51
2022/02/16 10:02:48;;;;;;;2.47;2.37;;;;;;;4.76;100.00;96201.41;4946938;28;20324;-49
2022/02/16 10:05:18;;;;;;;2.60;2.40;;;;;;;5.10;100.00;96212.53;4962703;28;20373;-54
2022/02/16 10:07:49;;;;;;;2.30;2.20;;;;;;;5.31;100.00;96214.53;4952001;28;20310;-56
2022/02/16 10:10:20;;;;;;;3.03;2.83;;;;;;;5.31;100.00;96202.22;4963487;28;20513;-51
2022/02/16 10:12:50;;;;;;;2.77;2.60;;;;;;;5.71;100.00;96206.53;4951893;28;20233;-50
2022/02/16 10:15:19;;;;;;;1.90;1.60;;;;;;;5.49;100.00;96191.44;4931079;28;20319;-49
2022/02/16 10:17:49;;;;;;;1.53;1.53;;;;;;;5.60;100.00;96199.88;4961453;28;20244;-50
2022/02/16 10:20:21;;;;;;;1.90;1.80;;;;;;;5.57;100.00;96206.28;4950107;28;20656;-57
2022/02/16 10:22:53;;;;;;;2.00;1.90;;;;;;;5.79;100.00;96198.56;4953432;28;20595;-53
2022/02/16 10:25:27;;;;;;;2.07;1.97;;;;;;;6.01;100.00;96186.41;4962638;28;20221;-53
2022/02/16 10:28:13;;;;;;;1.80;1.70;;;;;;;6.13;100.00;96183.31;4961864;28;20228;-54
2022/02/16 10:30:55;;;;;;;1.50;1.40;;;;;;;6.42;100.00;96182.50;4915134;28;20307;-56
2022/02/16 10:33:26;;;;;;;1.33;1.27;;;;;;;6.32;100.00;96174.91;4954279;28;20320;-55
2022/02/16 10:36:03;;;;;;;1.60;1.50;;;;;;;6.45;100.00;96171.63;4964687;28;20245;-54
2022/02/16 10:38:31;;;;;;;3.37;1.20;;;;;;;6.58;100.00;96175.44;4953954;28;20209;-52
2022/02/16 10:41:07;;;;;;;1.20;1.20;;;;;;;6.62;100.00;96166.97;4956745;28;20217;-55
2022/02/16 10:43:37;;;;;;;1.00;1.00;;;;;;;6.69;100.00;96174.16;4962357;28;20227;-52
2022/02/16 10:46:18;;;;;;;1.37;1.37;;;;;;;6.83;100.00;96173.28;4912327;28;20601;-51
2022/02/16 10:48:46;;;;;;;2.60;2.40;;;;;;;7.10;100.00;96170.94;4963321;28;20208;-52
2022/02/16 10:51:18;;;;;;;1.40;1.30;;;;;;;7.09;100.00;96172.75;4948005;28;20602;-51
2022/02/16 10:53:50;;;;;;;1.33;1.23;;;;;;;6.98;100.00;96167.16;4947482;28;20265;-53
2022/02/16 10:56:20;;;;;;;1.57;1.30;;;;;;;7.17;100.00;96168.38;4960686;28;20404;-48
2022/02/16 10:58:50;;;;;;;1.00;0.90;;;;;;;7.18;100.00;96164.72;4965588;28;20219;-53
2022/02/16 11:01:18;;;;;;;0.90;0.90;;;;;;;7.02;100.00;96156.06;4909500;28;23361;-53
2022/02/16 11:03:47;;;;;;;1.33;1.23;;;;;;;7.18;100.00;96141.84;4964473;28;20316;-57
2022/02/16 11:06:17;;;;;;;1.30;1.30;;;;;;;7.18;100.00;96148.91;4949783;28;20280;-54
2022/02/16 11:08:46;;;;;;;1.57;1.07;;;;;;;7.32;100.00;96141.97;4955193;28;20221;-54
2022/02/16 11:11:24;;;;;;;1.00;1.00;;;;;;;7.32;100.00;96137.53;4962648;28;20210;-54
2022/02/16 11:14:00;;;;;;;0.87;0.87;;;;;;;7.36;100.00;96132.66;4968132;28;20434;-53
2022/02/16 11:16:28;;;;;;;1.13;1.07;;;;;;;7.62;100.00;96133.91;4929882;28;20229;-50
2022/02/16 11:18:59;;;;;;;0.70;0.70;;;;;;;7.61;100.00;96113.81;4944166;28;20670;-51
2022/02/16 11:21:29;;;;;;;0.90;0.90;;;;;;;7.54;100.00;96124.31;4953761;28;20210;-53
2022/02/16 11:23:59;;;;;;;0.90;0.90;;;;;;;7.11;100.00;96101.47;4954329;28;20716;-50
2022/02/16 11:26:38;;;;;;;0.77;0.77;;;;;;;7.06;100.00;96109.91;4963104;28;20206;-53
2022/02/16 11:29:09;;;;;;;1.10;1.10;;;;;;;7.12;100.00;96111.00;4962699;28;20365;-53
2022/02/16 11:31:39;;;;;;;1.00;1.00;;;;;;;7.11;100.00;96104.09;4926917;28;20218;-53
2022/02/16 11:34:21;;;;;;;1.00;1.00;;;;;;;7.21;100.00;96103.78;4940923;28;20408;-51
2022/02/16 11:36:53;;;;;;;1.07;0.97;;;;;;;7.23;100.00;96099.94;4954421;28;20214;-54